sensor_id;sensor_type;location;lat;lon;timestamp;P1;durP1;ratioP1;P2;durP2;ratioP2
75261;SDS011;63859;51.064;4.580;2024-01-30T00:02:25;11.37;;;7.00;;
75261;SDS011;63859;51.064;4.580;2024-01-30T00:04:50;15.10;;;7.03;;
75261;SDS011;63859;51.064;4.580;2024-01-30T00:07:17;8.63;;;6.43;;
75261;SDS011;63859;51.064;4.580;2024-01-30T00:09:42;11.83;;;6.27;;
75261;SDS011;63859;51.064;4.580;2024-01-30T00:12:08;10.87;;;6.43;;
75261;SDS011;63859;51.064;4.580;2024-01-30T00:14:34;11.17;;;7.00;;
75261;SDS011;63859;51.064;4.580;2024-01-30T00:16:59;9.37;;;6.03;;
75261;SDS011;63859;51.064;4.580;2024-01-30T00:19:25;9.33;;;6.70;;
75261;SDS011;63859;51.064;4.580;2024-01-30T00:21:51;11.40;;;6.87;;
75261;SDS011;63859;51.064;4.580;2024-01-30T00:24:17;12.87;;;6.37;;
75261;SDS011;63859;51.064;4.580;2024-01-30T00:26:43;9.73;;;6.13;;
75261;SDS011;63859;51.064;4.580;2024-01-30T00:29:09;9.43;;;6.07;;
75261;SDS011;63859;51.064;4.580;2024-01-30T00:31:35;10.07;;;6.50;;
75261;SDS011;63859;51.064;4.580;2024-01-30T00:34:00;11.90;;;6.00;;
75261;SDS011;63859;51.064;4.580;2024-01-30T00:36:26;10.73;;;6.20;;
75261;SDS011;63859;51.064;4.580;2024-01-30T00:38:54;8.30;;;6.03;;
75261;SDS011;63859;51.064;4.580;2024-01-30T00:41:20;9.20;;;6.30;;
75261;SDS011;63859;51.064;4.580;2024-01-30T00:43:45;8.33;;;5.93;;
75261;SDS011;63859;51.064;4.580;2024-01-30T00:46:11;9.00;;;5.97;;
75261;SDS011;63859;51.064;4.580;2024-01-30T00:48:37;9.03;;;5.90;;
75261;SDS011;63859;51.064;4.580;2024-01-30T00:51:03;11.73;;;6.40;;
75261;SDS011;63859;51.064;4.580;2024-01-30T00:53:29;9.00;;;5.87;;
75261;SDS011;63859;51.064;4.580;2024-01-30T00:55:54;9.03;;;6.27;;
75261;SDS011;63859;51.064;4.580;2024-01-30T00:58:20;10.23;;;5.77;;
75261;SDS011;63859;51.064;4.580;2024-01-30T01:00:46;10.20;;;6.10;;
75261;SDS011;63859;51.064;4.580;2024-01-30T01:03:12;8.10;;;5.50;;
75261;SDS011;63859;51.064;4.580;2024-01-30T01:05:39;10.40;;;6.10;;
75261;SDS011;63859;51.064;4.580;2024-01-30T01:08:04;9.47;;;5.93;;
75261;SDS011;63859;51.064;4.580;2024-01-30T01:10:30;8.67;;;5.57;;
75261;SDS011;63859;51.064;4.580;2024-01-30T01:12:56;9.10;;;5.83;;
75261;SDS011;63859;51.064;4.580;2024-01-30T01:15:21;9.67;;;5.43;;
75261;SDS011;63859;51.064;4.580;2024-01-30T01:17:47;13.80;;;6.50;;
75261;SDS011;63859;51.064;4.580;2024-01-30T01:20:13;8.50;;;5.70;;
75261;SDS011;63859;51.064;4.580;2024-01-30T01:22:40;12.00;;;5.97;;
75261;SDS011;63859;51.064;4.580;2024-01-30T01:25:06;11.47;;;5.93;;
75261;SDS011;63859;51.064;4.580;2024-01-30T01:27:33;9.33;;;5.93;;
75261;SDS011;63859;51.064;4.580;2024-01-30T01:29:59;12.40;;;6.33;;
75261;SDS011;63859;51.064;4.580;2024-01-30T01:32:25;8.97;;;6.27;;
75261;SDS011;63859;51.064;4.580;2024-01-30T01:34:51;7.73;;;5.47;;
75261;SDS011;63859;51.064;4.580;2024-01-30T01:37:16;10.80;;;5.83;;
75261;SDS011;63859;51.064;4.580;2024-01-30T01:39:42;8.57;;;5.60;;
75261;SDS011;63859;51.064;4.580;2024-01-30T01:42:08;8.43;;;5.47;;
75261;SDS011;63859;51.064;4.580;2024-01-30T01:44:34;7.57;;;5.40;;
75261;SDS011;63859;51.064;4.580;2024-01-30T01:47:00;9.67;;;5.83;;
75261;SDS011;63859;51.064;4.580;2024-01-30T01:49:27;10.00;;;5.50;;
75261;SDS011;63859;51.064;4.580;2024-01-30T01:51:53;8.60;;;5.97;;
75261;SDS011;63859;51.064;4.580;2024-01-30T01:54:21;10.33;;;5.80;;
75261;SDS011;63859;51.064;4.580;2024-01-30T01:56:48;13.57;;;5.70;;
75261;SDS011;63859;51.064;4.580;2024-01-30T01:59:14;9.37;;;5.70;;
75261;SDS011;63859;51.064;4.580;2024-01-30T02:01:40;9.70;;;5.97;;
75261;SDS011;63859;51.064;4.580;2024-01-30T02:04:07;9.93;;;5.57;;
75261;SDS011;63859;51.064;4.580;2024-01-30T02:06:34;9.57;;;5.40;;
75261;SDS011;63859;51.064;4.580;2024-01-30T02:09:00;10.07;;;6.10;;
75261;SDS011;63859;51.064;4.580;2024-01-30T02:11:25;6.87;;;5.47;;
75261;SDS011;63859;51.064;4.580;2024-01-30T02:13:53;10.20;;;5.57;;
75261;SDS011;63859;51.064;4.580;2024-01-30T02:16:18;8.70;;;5.57;;
75261;SDS011;63859;51.064;4.580;2024-01-30T02:18:44;10.07;;;6.03;;
75261;SDS011;63859;51.064;4.580;2024-01-30T02:21:12;10.10;;;5.80;;
75261;SDS011;63859;51.064;4.580;2024-01-30T02:23:39;8.17;;;5.73;;
75261;SDS011;63859;51.064;4.580;2024-01-30T02:26:06;9.70;;;5.37;;
75261;SDS011;63859;51.064;4.580;2024-01-30T02:28:31;10.90;;;5.57;;
75261;SDS011;63859;51.064;4.580;2024-01-30T02:30:57;11.20;;;6.10;;
75261;SDS011;63859;51.064;4.580;2024-01-30T02:33:23;7.83;;;5.60;;
75261;SDS011;63859;51.064;4.580;2024-01-30T02:35:49;14.07;;;5.70;;
75261;SDS011;63859;51.064;4.580;2024-01-30T02:38:15;7.70;;;5.57;;
75261;SDS011;63859;51.064;4.580;2024-01-30T02:40:41;10.47;;;6.23;;
75261;SDS011;63859;51.064;4.580;2024-01-30T02:43:07;8.33;;;6.00;;
75261;SDS011;63859;51.064;4.580;2024-01-30T02:45:33;8.37;;;5.83;;
75261;SDS011;63859;51.064;4.580;2024-01-30T02:47:59;9.27;;;5.83;;
75261;SDS011;63859;51.064;4.580;2024-01-30T02:50:25;7.77;;;5.67;;
75261;SDS011;63859;51.064;4.580;2024-01-30T02:52:51;11.10;;;5.97;;
75261;SDS011;63859;51.064;4.580;2024-01-30T02:55:16;9.53;;;6.53;;
75261;SDS011;63859;51.064;4.580;2024-01-30T02:57:43;10.73;;;5.57;;
75261;SDS011;63859;51.064;4.580;2024-01-30T03:00:09;10.57;;;6.17;;
75261;SDS011;63859;51.064;4.580;2024-01-30T03:02:35;9.03;;;5.27;;
75261;SDS011;63859;51.064;4.580;2024-01-30T03:05:02;9.43;;;5.80;;
75261;SDS011;63859;51.064;4.580;2024-01-30T03:07:28;8.77;;;5.60;;
75261;SDS011;63859;51.064;4.580;2024-01-30T03:09:54;10.43;;;6.23;;
75261;SDS011;63859;51.064;4.580;2024-01-30T03:12:20;10.07;;;5.70;;
75261;SDS011;63859;51.064;4.580;2024-01-30T03:14:47;8.57;;;5.93;;
75261;SDS011;63859;51.064;4.580;2024-01-30T03:17:12;10.33;;;6.03;;
75261;SDS011;63859;51.064;4.580;2024-01-30T03:19:38;10.10;;;5.87;;
75261;SDS011;63859;51.064;4.580;2024-01-30T03:22:04;8.03;;;6.00;;
75261;SDS011;63859;51.064;4.580;2024-01-30T03:24:30;8.73;;;6.03;;
75261;SDS011;63859;51.064;4.580;2024-01-30T03:26:55;10.30;;;6.17;;
75261;SDS011;63859;51.064;4.580;2024-01-30T03:29:21;11.63;;;5.80;;
75261;SDS011;63859;51.064;4.580;2024-01-30T03:31:47;9.73;;;5.87;;
75261;SDS011;63859;51.064;4.580;2024-01-30T03:34:13;9.60;;;6.20;;
75261;SDS011;63859;51.064;4.580;2024-01-30T03:36:38;10.87;;;6.10;;
75261;SDS011;63859;51.064;4.580;2024-01-30T03:39:04;9.67;;;5.93;;
75261;SDS011;63859;51.064;4.580;2024-01-30T03:41:31;8.83;;;5.93;;
75261;SDS011;63859;51.064;4.580;2024-01-30T03:43:57;8.40;;;5.83;;
75261;SDS011;63859;51.064;4.580;2024-01-30T03:46:23;13.20;;;6.17;;
75261;SDS011;63859;51.064;4.580;2024-01-30T03:48:49;10.10;;;6.07;;
75261;SDS011;63859;51.064;4.580;2024-01-30T03:51:15;8.87;;;5.27;;
75261;SDS011;63859;51.064;4.580;2024-01-30T03:53:41;14.53;;;6.17;;
75261;SDS011;63859;51.064;4.580;2024-01-30T03:56:08;8.70;;;5.70;;
75261;SDS011;63859;51.064;4.580;2024-01-30T03:58:34;7.70;;;5.87;;
75261;SDS011;63859;51.064;4.580;2024-01-30T04:01:00;9.57;;;5.80;;
75261;SDS011;63859;51.064;4.580;2024-01-30T04:03:25;11.33;;;6.03;;
75261;SDS011;63859;51.064;4.580;2024-01-30T04:05:52;11.10;;;6.13;;
75261;SDS011;63859;51.064;4.580;2024-01-30T04:08:18;10.10;;;6.10;;
75261;SDS011;63859;51.064;4.580;2024-01-30T04:10:44;8.03;;;5.60;;
75261;SDS011;63859;51.064;4.580;2024-01-30T04:13:09;8.73;;;5.40;;
75261;SDS011;63859;51.064;4.580;2024-01-30T04:15:35;8.73;;;6.23;;
75261;SDS011;63859;51.064;4.580;2024-01-30T04:18:01;12.40;;;6.23;;
75261;SDS011;63859;51.064;4.580;2024-01-30T04:20:27;9.73;;;5.57;;
75261;SDS011;63859;51.064;4.580;2024-01-30T04:22:53;10.07;;;5.97;;
75261;SDS011;63859;51.064;4.580;2024-01-30T04:25:19;8.93;;;5.97;;
75261;SDS011;63859;51.064;4.580;2024-01-30T04:27:44;8.23;;;5.83;;
75261;SDS011;63859;51.064;4.580;2024-01-30T04:30:11;9.17;;;5.67;;
75261;SDS011;63859;51.064;4.580;2024-01-30T04:32:36;10.20;;;5.60;;
75261;SDS011;63859;51.064;4.580;2024-01-30T04:35:02;9.33;;;5.80;;
75261;SDS011;63859;51.064;4.580;2024-01-30T04:37:28;14.83;;;6.27;;
75261;SDS011;63859;51.064;4.580;2024-01-30T04:39:54;9.43;;;5.80;;
75261;SDS011;63859;51.064;4.580;2024-01-30T04:42:20;8.50;;;5.83;;
75261;SDS011;63859;51.064;4.580;2024-01-30T04:44:46;10.67;;;5.80;;
75261;SDS011;63859;51.064;4.580;2024-01-30T04:47:12;10.30;;;5.33;;
75261;SDS011;63859;51.064;4.580;2024-01-30T04:49:38;13.73;;;5.60;;
75261;SDS011;63859;51.064;4.580;2024-01-30T04:52:07;11.40;;;5.20;;
75261;SDS011;63859;51.064;4.580;2024-01-30T04:54:34;9.50;;;5.60;;
75261;SDS011;63859;51.064;4.580;2024-01-30T04:57:01;8.87;;;5.13;;
75261;SDS011;63859;51.064;4.580;2024-01-30T04:59:27;9.03;;;5.67;;
75261;SDS011;63859;51.064;4.580;2024-01-30T05:01:53;7.30;;;5.70;;
75261;SDS011;63859;51.064;4.580;2024-01-30T05:04:19;8.90;;;6.03;;
75261;SDS011;63859;51.064;4.580;2024-01-30T05:06:45;8.03;;;5.17;;
75261;SDS011;63859;51.064;4.580;2024-01-30T05:09:11;7.00;;;5.20;;
75261;SDS011;63859;51.064;4.580;2024-01-30T05:11:40;9.53;;;5.70;;
75261;SDS011;63859;51.064;4.580;2024-01-30T05:14:06;6.83;;;5.00;;
75261;SDS011;63859;51.064;4.580;2024-01-30T05:16:33;8.27;;;5.03;;
75261;SDS011;63859;51.064;4.580;2024-01-30T05:18:59;10.27;;;5.13;;
75261;SDS011;63859;51.064;4.580;2024-01-30T05:21:25;8.87;;;5.50;;
75261;SDS011;63859;51.064;4.580;2024-01-30T05:23:51;10.30;;;5.63;;
75261;SDS011;63859;51.064;4.580;2024-01-30T05:26:17;10.97;;;5.83;;
75261;SDS011;63859;51.064;4.580;2024-01-30T05:28:43;10.83;;;6.10;;
75261;SDS011;63859;51.064;4.580;2024-01-30T05:31:13;7.77;;;5.73;;
75261;SDS011;63859;51.064;4.580;2024-01-30T05:33:39;7.73;;;5.30;;
75261;SDS011;63859;51.064;4.580;2024-01-30T05:36:06;9.07;;;5.73;;
75261;SDS011;63859;51.064;4.580;2024-01-30T05:38:31;9.63;;;5.90;;
75261;SDS011;63859;51.064;4.580;2024-01-30T05:40:57;12.47;;;5.40;;
75261;SDS011;63859;51.064;4.580;2024-01-30T05:43:24;9.83;;;5.67;;
75261;SDS011;63859;51.064;4.580;2024-01-30T05:45:50;10.13;;;5.60;;
75261;SDS011;63859;51.064;4.580;2024-01-30T05:48:17;11.93;;;5.80;;
75261;SDS011;63859;51.064;4.580;2024-01-30T05:50:42;8.83;;;5.70;;
75261;SDS011;63859;51.064;4.580;2024-01-30T05:53:08;10.90;;;6.07;;
75261;SDS011;63859;51.064;4.580;2024-01-30T05:55:34;8.97;;;5.40;;
75261;SDS011;63859;51.064;4.580;2024-01-30T05:57:59;9.07;;;5.13;;
75261;SDS011;63859;51.064;4.580;2024-01-30T06:00:25;8.17;;;5.60;;
75261;SDS011;63859;51.064;4.580;2024-01-30T06:02:51;8.07;;;5.30;;
75261;SDS011;63859;51.064;4.580;2024-01-30T06:05:17;7.90;;;5.93;;
75261;SDS011;63859;51.064;4.580;2024-01-30T06:07:43;8.13;;;5.53;;
75261;SDS011;63859;51.064;4.580;2024-01-30T06:10:09;8.37;;;6.03;;
75261;SDS011;63859;51.064;4.580;2024-01-30T06:12:36;10.77;;;6.00;;
75261;SDS011;63859;51.064;4.580;2024-01-30T06:15:02;7.17;;;5.40;;
75261;SDS011;63859;51.064;4.580;2024-01-30T06:17:28;10.40;;;5.60;;
75261;SDS011;63859;51.064;4.580;2024-01-30T06:19:55;11.83;;;5.90;;
75261;SDS011;63859;51.064;4.580;2024-01-30T06:22:20;11.30;;;6.10;;
75261;SDS011;63859;51.064;4.580;2024-01-30T06:24:46;15.77;;;5.97;;
75261;SDS011;63859;51.064;4.580;2024-01-30T06:27:15;8.63;;;5.53;;
75261;SDS011;63859;51.064;4.580;2024-01-30T06:29:42;12.07;;;5.93;;
75261;SDS011;63859;51.064;4.580;2024-01-30T06:32:09;9.37;;;5.97;;
75261;SDS011;63859;51.064;4.580;2024-01-30T06:34:35;12.83;;;6.40;;
75261;SDS011;63859;51.064;4.580;2024-01-30T06:37:01;9.70;;;6.17;;
75261;SDS011;63859;51.064;4.580;2024-01-30T06:39:27;10.63;;;6.03;;
75261;SDS011;63859;51.064;4.580;2024-01-30T06:41:53;9.27;;;6.53;;
75261;SDS011;63859;51.064;4.580;2024-01-30T06:44:19;9.10;;;5.67;;
75261;SDS011;63859;51.064;4.580;2024-01-30T06:46:45;11.80;;;6.10;;
75261;SDS011;63859;51.064;4.580;2024-01-30T06:49:10;10.30;;;5.97;;
75261;SDS011;63859;51.064;4.580;2024-01-30T06:51:36;11.57;;;6.60;;
75261;SDS011;63859;51.064;4.580;2024-01-30T06:54:02;11.83;;;6.07;;
75261;SDS011;63859;51.064;4.580;2024-01-30T06:56:28;10.50;;;6.20;;
75261;SDS011;63859;51.064;4.580;2024-01-30T06:58:54;8.87;;;5.70;;
75261;SDS011;63859;51.064;4.580;2024-01-30T07:01:19;11.53;;;6.10;;
75261;SDS011;63859;51.064;4.580;2024-01-30T07:03:45;7.00;;;5.50;;
75261;SDS011;63859;51.064;4.580;2024-01-30T07:06:11;9.10;;;6.17;;
75261;SDS011;63859;51.064;4.580;2024-01-30T07:08:37;10.80;;;6.03;;
75261;SDS011;63859;51.064;4.580;2024-01-30T07:11:06;10.50;;;6.33;;
75261;SDS011;63859;51.064;4.580;2024-01-30T07:13:32;14.13;;;6.73;;
75261;SDS011;63859;51.064;4.580;2024-01-30T07:15:59;12.53;;;6.50;;
75261;SDS011;63859;51.064;4.580;2024-01-30T07:18:25;10.50;;;6.40;;
75261;SDS011;63859;51.064;4.580;2024-01-30T07:20:51;12.90;;;6.60;;
75261;SDS011;63859;51.064;4.580;2024-01-30T07:23:17;8.63;;;6.03;;
75261;SDS011;63859;51.064;4.580;2024-01-30T07:25:43;13.13;;;6.50;;
75261;SDS011;63859;51.064;4.580;2024-01-30T07:28:10;10.37;;;6.40;;
75261;SDS011;63859;51.064;4.580;2024-01-30T07:30:37;12.33;;;6.60;;
75261;SDS011;63859;51.064;4.580;2024-01-30T07:33:03;12.20;;;6.07;;
75261;SDS011;63859;51.064;4.580;2024-01-30T07:35:29;11.80;;;6.57;;
75261;SDS011;63859;51.064;4.580;2024-01-30T07:37:55;11.33;;;6.47;;
75261;SDS011;63859;51.064;4.580;2024-01-30T07:40:22;13.73;;;6.37;;
75261;SDS011;63859;51.064;4.580;2024-01-30T07:42:48;10.60;;;6.47;;
75261;SDS011;63859;51.064;4.580;2024-01-30T07:45:14;13.77;;;6.47;;
75261;SDS011;63859;51.064;4.580;2024-01-30T07:47:40;16.83;;;6.90;;
75261;SDS011;63859;51.064;4.580;2024-01-30T07:50:07;11.37;;;6.23;;
75261;SDS011;63859;51.064;4.580;2024-01-30T07:52:33;18.50;;;6.93;;
75261;SDS011;63859;51.064;4.580;2024-01-30T07:54:59;10.33;;;5.87;;
75261;SDS011;63859;51.064;4.580;2024-01-30T07:57:25;13.70;;;6.13;;
75261;SDS011;63859;51.064;4.580;2024-01-30T07:59:51;11.00;;;6.17;;
75261;SDS011;63859;51.064;4.580;2024-01-30T08:02:16;13.00;;;6.03;;
75261;SDS011;63859;51.064;4.580;2024-01-30T08:04:42;10.83;;;6.20;;
75261;SDS011;63859;51.064;4.580;2024-01-30T08:07:08;14.83;;;6.20;;
75261;SDS011;63859;51.064;4.580;2024-01-30T08:09:34;17.93;;;6.57;;
75261;SDS011;63859;51.064;4.580;2024-01-30T08:12:00;10.03;;;6.40;;
75261;SDS011;63859;51.064;4.580;2024-01-30T08:14:26;17.43;;;7.40;;
75261;SDS011;63859;51.064;4.580;2024-01-30T08:16:52;11.97;;;6.43;;
75261;SDS011;63859;51.064;4.580;2024-01-30T08:19:18;11.83;;;6.50;;
75261;SDS011;63859;51.064;4.580;2024-01-30T08:21:44;12.77;;;6.77;;
75261;SDS011;63859;51.064;4.580;2024-01-30T08:24:10;13.70;;;6.50;;
75261;SDS011;63859;51.064;4.580;2024-01-30T08:26:36;10.57;;;6.50;;
75261;SDS011;63859;51.064;4.580;2024-01-30T08:29:02;14.97;;;7.00;;
75261;SDS011;63859;51.064;4.580;2024-01-30T08:31:27;14.80;;;6.70;;
75261;SDS011;63859;51.064;4.580;2024-01-30T08:33:53;16.80;;;7.23;;
75261;SDS011;63859;51.064;4.580;2024-01-30T08:36:19;14.77;;;6.67;;
75261;SDS011;63859;51.064;4.580;2024-01-30T08:38:45;18.83;;;7.07;;
75261;SDS011;63859;51.064;4.580;2024-01-30T08:41:11;12.50;;;6.33;;
75261;SDS011;63859;51.064;4.580;2024-01-30T08:43:37;15.70;;;6.53;;
75261;SDS011;63859;51.064;4.580;2024-01-30T08:46:02;17.90;;;7.20;;
75261;SDS011;63859;51.064;4.580;2024-01-30T08:48:28;13.10;;;6.93;;
75261;SDS011;63859;51.064;4.580;2024-01-30T08:50:54;19.10;;;6.83;;
75261;SDS011;63859;51.064;4.580;2024-01-30T08:53:20;17.77;;;6.37;;
75261;SDS011;63859;51.064;4.580;2024-01-30T08:55:46;19.40;;;6.47;;
75261;SDS011;63859;51.064;4.580;2024-01-30T08:58:11;15.30;;;6.77;;
75261;SDS011;63859;51.064;4.580;2024-01-30T09:00:38;14.40;;;6.40;;
75261;SDS011;63859;51.064;4.580;2024-01-30T09:03:04;17.00;;;7.47;;
75261;SDS011;63859;51.064;4.580;2024-01-30T09:05:30;15.07;;;6.50;;
75261;SDS011;63859;51.064;4.580;2024-01-30T09:07:56;21.87;;;7.67;;
75261;SDS011;63859;51.064;4.580;2024-01-30T09:10:21;14.73;;;7.10;;
75261;SDS011;63859;51.064;4.580;2024-01-30T09:12:47;13.53;;;7.00;;
75261;SDS011;63859;51.064;4.580;2024-01-30T09:15:14;15.57;;;7.13;;
75261;SDS011;63859;51.064;4.580;2024-01-30T09:17:40;24.40;;;7.50;;
75261;SDS011;63859;51.064;4.580;2024-01-30T09:20:06;16.33;;;7.47;;
75261;SDS011;63859;51.064;4.580;2024-01-30T09:22:32;14.23;;;7.13;;
75261;SDS011;63859;51.064;4.580;2024-01-30T09:24:58;19.67;;;7.10;;
75261;SDS011;63859;51.064;4.580;2024-01-30T09:27:23;16.70;;;7.67;;
75261;SDS011;63859;51.064;4.580;2024-01-30T09:29:49;15.10;;;7.32;;
75261;SDS011;63859;51.064;4.580;2024-01-30T09:32:15;13.70;;;7.33;;
75261;SDS011;63859;51.064;4.580;2024-01-30T09:34:40;14.47;;;8.17;;
75261;SDS011;63859;51.064;4.580;2024-01-30T09:37:07;16.43;;;7.30;;
75261;SDS011;63859;51.064;4.580;2024-01-30T09:39:32;14.77;;;7.70;;
75261;SDS011;63859;51.064;4.580;2024-01-30T09:42:18;17.37;;;7.50;;
75261;SDS011;63859;51.064;4.580;2024-01-30T09:44:51;23.13;;;8.23;;
75261;SDS011;63859;51.064;4.580;2024-01-30T09:47:18;21.97;;;8.40;;
75261;SDS011;63859;51.064;4.580;2024-01-30T09:49:44;15.97;;;8.87;;
75261;SDS011;63859;51.064;4.580;2024-01-30T09:52:10;17.60;;;8.20;;
75261;SDS011;63859;51.064;4.580;2024-01-30T09:54:36;18.42;;;7.90;;
75261;SDS011;63859;51.064;4.580;2024-01-30T09:57:04;15.10;;;8.20;;
75261;SDS011;63859;51.064;4.580;2024-01-30T09:59:30;13.95;;;7.30;;
75261;SDS011;63859;51.064;4.580;2024-01-30T10:01:56;12.90;;;7.97;;
75261;SDS011;63859;51.064;4.580;2024-01-30T10:04:22;12.98;;;7.97;;
75261;SDS011;63859;51.064;4.580;2024-01-30T10:06:48;19.27;;;8.33;;
75261;SDS011;63859;51.064;4.580;2024-01-30T10:09:14;15.13;;;8.00;;
75261;SDS011;63859;51.064;4.580;2024-01-30T10:11:40;22.75;;;8.68;;
75261;SDS011;63859;51.064;4.580;2024-01-30T10:14:06;13.10;;;7.93;;
75261;SDS011;63859;51.064;4.580;2024-01-30T10:16:32;15.50;;;8.03;;
75261;SDS011;63859;51.064;4.580;2024-01-30T10:19:00;16.58;;;8.63;;
75261;SDS011;63859;51.064;4.580;2024-01-30T10:21:26;17.00;;;8.30;;
75261;SDS011;63859;51.064;4.580;2024-01-30T10:23:52;17.30;;;8.70;;
75261;SDS011;63859;51.064;4.580;2024-01-30T10:26:18;18.77;;;8.33;;
75261;SDS011;63859;51.064;4.580;2024-01-30T10:28:43;25.03;;;8.50;;
75261;SDS011;63859;51.064;4.580;2024-01-30T10:31:09;16.80;;;8.50;;
75261;SDS011;63859;51.064;4.580;2024-01-30T10:33:35;17.57;;;8.57;;
75261;SDS011;63859;51.064;4.580;2024-01-30T10:36:01;18.90;;;7.60;;
75261;SDS011;63859;51.064;4.580;2024-01-30T10:38:28;13.03;;;7.43;;
75261;SDS011;63859;51.064;4.580;2024-01-30T10:40:58;15.93;;;6.47;;
75261;SDS011;63859;51.064;4.580;2024-01-30T10:43:30;14.65;;;6.25;;
75261;SDS011;63859;51.064;4.580;2024-01-30T10:46:19;15.18;;;6.40;;
75261;SDS011;63859;51.064;4.580;2024-01-30T10:48:50;15.23;;;5.10;;
75261;SDS011;63859;51.064;4.580;2024-01-30T10:51:26;9.20;;;4.70;;
75261;SDS011;63859;51.064;4.580;2024-01-30T10:53:53;8.43;;;4.40;;
75261;SDS011;63859;51.064;4.580;2024-01-30T10:56:23;11.67;;;4.10;;
75261;SDS011;63859;51.064;4.580;2024-01-30T10:58:50;8.93;;;2.70;;
75261;SDS011;63859;51.064;4.580;2024-01-30T11:01:21;11.30;;;4.53;;
75261;SDS011;63859;51.064;4.580;2024-01-30T11:03:51;11.23;;;4.20;;
75261;SDS011;63859;51.064;4.580;2024-01-30T11:06:17;7.03;;;3.50;;
75261;SDS011;63859;51.064;4.580;2024-01-30T11:08:46;6.70;;;3.60;;
75261;SDS011;63859;51.064;4.580;2024-01-30T11:11:24;8.73;;;3.27;;
75261;SDS011;63859;51.064;4.580;2024-01-30T11:13:50;5.60;;;2.43;;
75261;SDS011;63859;51.064;4.580;2024-01-30T11:16:16;7.30;;;2.53;;
75261;SDS011;63859;51.064;4.580;2024-01-30T11:18:42;7.40;;;2.80;;
75261;SDS011;63859;51.064;4.580;2024-01-30T11:21:07;8.40;;;2.30;;
75261;SDS011;63859;51.064;4.580;2024-01-30T11:23:34;11.13;;;2.50;;
75261;SDS011;63859;51.064;4.580;2024-01-30T11:26:01;3.97;;;2.00;;
75261;SDS011;63859;51.064;4.580;2024-01-30T11:28:31;4.57;;;2.13;;
75261;SDS011;63859;51.064;4.580;2024-01-30T11:31:02;8.23;;;2.30;;
75261;SDS011;63859;51.064;4.580;2024-01-30T11:33:29;8.70;;;2.23;;
75261;SDS011;63859;51.064;4.580;2024-01-30T11:35:59;6.90;;;2.53;;
75261;SDS011;63859;51.064;4.580;2024-01-30T11:38:26;8.00;;;2.30;;
75261;SDS011;63859;51.064;4.580;2024-01-30T11:40:53;9.32;;;2.03;;
75261;SDS011;63859;51.064;4.580;2024-01-30T11:43:23;3.92;;;1.95;;
75261;SDS011;63859;51.064;4.580;2024-01-30T11:45:49;7.77;;;1.83;;
75261;SDS011;63859;51.064;4.580;2024-01-30T11:48:15;2.78;;;1.30;;
75261;SDS011;63859;51.064;4.580;2024-01-30T11:50:41;6.50;;;1.80;;
75261;SDS011;63859;51.064;4.580;2024-01-30T11:53:09;6.00;;;1.77;;
75261;SDS011;63859;51.064;4.580;2024-01-30T11:55:35;2.40;;;1.30;;
75261;SDS011;63859;51.064;4.580;2024-01-30T11:58:02;5.85;;;1.30;;
75261;SDS011;63859;51.064;4.580;2024-01-30T12:00:29;3.30;;;1.58;;
75261;SDS011;63859;51.064;4.580;2024-01-30T12:02:56;4.00;;;1.30;;
75261;SDS011;63859;51.064;4.580;2024-01-30T12:05:22;3.53;;;0.80;;
75261;SDS011;63859;51.064;4.580;2024-01-30T12:07:49;4.07;;;1.20;;
75261;SDS011;63859;51.064;4.580;2024-01-30T12:10:14;4.50;;;1.33;;
75261;SDS011;63859;51.064;4.580;2024-01-30T12:12:47;3.88;;;1.10;;
75261;SDS011;63859;51.064;4.580;2024-01-30T12:15:16;5.23;;;1.10;;
75261;SDS011;63859;51.064;4.580;2024-01-30T12:17:44;4.13;;;1.00;;
75261;SDS011;63859;51.064;4.580;2024-01-30T12:20:13;2.40;;;1.25;;
75261;SDS011;63859;51.064;4.580;2024-01-30T12:22:40;4.33;;;1.20;;
75261;SDS011;63859;51.064;4.580;2024-01-30T12:27:38;4.10;;;1.20;;
75261;SDS011;63859;51.064;4.580;2024-01-30T12:30:08;4.22;;;1.10;;
75261;SDS011;63859;51.064;4.580;2024-01-30T12:32:35;6.82;;;1.35;;
75261;SDS011;63859;51.064;4.580;2024-01-30T12:35:02;4.30;;;1.17;;
75261;SDS011;63859;51.064;4.580;2024-01-30T12:37:29;5.45;;;1.38;;
75261;SDS011;63859;51.064;4.580;2024-01-30T12:39:56;3.75;;;1.25;;
75261;SDS011;63859;51.064;4.580;2024-01-30T12:42:22;6.40;;;1.50;;
75261;SDS011;63859;51.064;4.580;2024-01-30T12:44:48;3.38;;;1.25;;
75261;SDS011;63859;51.064;4.580;2024-01-30T12:47:14;3.80;;;1.45;;
75261;SDS011;63859;51.064;4.580;2024-01-30T12:49:44;5.90;;;1.88;;
75261;SDS011;63859;51.064;4.580;2024-01-30T12:52:10;5.93;;;1.40;;
75261;SDS011;63859;51.064;4.580;2024-01-30T12:54:37;4.00;;;1.03;;
75261;SDS011;63859;51.064;4.580;2024-01-30T12:57:03;4.22;;;1.45;;
75261;SDS011;63859;51.064;4.580;2024-01-30T12:59:30;6.00;;;1.30;;
75261;SDS011;63859;51.064;4.580;2024-01-30T13:01:55;1.73;;;0.90;;
75261;SDS011;63859;51.064;4.580;2024-01-30T13:04:22;3.43;;;1.30;;
75261;SDS011;63859;51.064;4.580;2024-01-30T13:06:48;7.33;;;1.57;;
75261;SDS011;63859;51.064;4.580;2024-01-30T13:09:14;3.23;;;1.07;;
75261;SDS011;63859;51.064;4.580;2024-01-30T13:11:39;2.80;;;1.03;;
75261;SDS011;63859;51.064;4.580;2024-01-30T13:14:05;3.27;;;1.30;;
75261;SDS011;63859;51.064;4.580;2024-01-30T13:16:31;3.43;;;0.90;;
75261;SDS011;63859;51.064;4.580;2024-01-30T13:18:57;2.70;;;1.00;;
75261;SDS011;63859;51.064;4.580;2024-01-30T13:21:23;2.33;;;1.30;;
75261;SDS011;63859;51.064;4.580;2024-01-30T13:23:49;6.47;;;1.47;;
75261;SDS011;63859;51.064;4.580;2024-01-30T13:26:18;3.73;;;1.13;;
75261;SDS011;63859;51.064;4.580;2024-01-30T13:28:44;4.07;;;0.93;;
75261;SDS011;63859;51.064;4.580;2024-01-30T13:31:10;2.03;;;1.20;;
75261;SDS011;63859;51.064;4.580;2024-01-30T13:33:36;8.90;;;1.95;;
75261;SDS011;63859;51.064;4.580;2024-01-30T13:36:02;2.67;;;1.43;;
75261;SDS011;63859;51.064;4.580;2024-01-30T13:38:28;3.60;;;1.40;;
75261;SDS011;63859;51.064;4.580;2024-01-30T13:40:54;4.70;;;1.00;;
75261;SDS011;63859;51.064;4.580;2024-01-30T13:43:19;5.70;;;1.33;;
75261;SDS011;63859;51.064;4.580;2024-01-30T13:45:45;4.67;;;1.57;;
75261;SDS011;63859;51.064;4.580;2024-01-30T13:48:11;2.67;;;1.30;;
75261;SDS011;63859;51.064;4.580;2024-01-30T13:50:37;1.77;;;1.10;;
75261;SDS011;63859;51.064;4.580;2024-01-30T13:53:03;3.23;;;1.60;;
75261;SDS011;63859;51.064;4.580;2024-01-30T13:55:31;6.10;;;1.80;;
75261;SDS011;63859;51.064;4.580;2024-01-30T13:57:57;9.10;;;1.83;;
75261;SDS011;63859;51.064;4.580;2024-01-30T14:00:23;4.70;;;1.70;;
75261;SDS011;63859;51.064;4.580;2024-01-30T14:02:50;3.83;;;1.40;;
75261;SDS011;63859;51.064;4.580;2024-01-30T14:05:16;6.20;;;2.07;;
75261;SDS011;63859;51.064;4.580;2024-01-30T14:07:43;6.17;;;1.37;;
75261;SDS011;63859;51.064;4.580;2024-01-30T14:10:09;3.17;;;1.20;;
75261;SDS011;63859;51.064;4.580;2024-01-30T14:12:38;5.00;;;1.57;;
75261;SDS011;63859;51.064;4.580;2024-01-30T14:15:04;4.63;;;1.40;;
75261;SDS011;63859;51.064;4.580;2024-01-30T14:17:31;2.37;;;1.53;;
75261;SDS011;63859;51.064;4.580;2024-01-30T14:19:57;3.33;;;1.47;;
75261;SDS011;63859;51.064;4.580;2024-01-30T14:22:22;5.93;;;1.50;;
75261;SDS011;63859;51.064;4.580;2024-01-30T14:24:48;8.80;;;1.80;;
75261;SDS011;63859;51.064;4.580;2024-01-30T14:27:14;4.30;;;1.50;;
75261;SDS011;63859;51.064;4.580;2024-01-30T14:29:40;3.17;;;1.47;;
75261;SDS011;63859;51.064;4.580;2024-01-30T14:32:07;5.87;;;1.10;;
75261;SDS011;63859;51.064;4.580;2024-01-30T14:34:33;5.17;;;1.47;;
75261;SDS011;63859;51.064;4.580;2024-01-30T14:36:58;4.93;;;1.67;;
75261;SDS011;63859;51.064;4.580;2024-01-30T14:39:24;5.73;;;1.50;;